createdAt,value
2023-03-17T00:01:19.751Z,4.37
2023-03-17T00:03:49.792Z,4.34
2023-03-17T00:06:30.014Z,4.32
2023-03-17T00:08:57.618Z,4.31
2023-03-17T00:11:26.936Z,4.31
2023-03-17T00:13:54.694Z,4.30
2023-03-17T00:16:29.552Z,4.28
2023-03-17T00:18:58.288Z,4.25
2023-03-17T00:21:34.340Z,4.22
2023-03-17T00:24:01.792Z,4.22
2023-03-17T00:26:28.713Z,4.21
2023-03-17T00:28:55.762Z,4.19
2023-03-17T00:31:25.724Z,4.18
2023-03-17T00:33:54.293Z,4.15
2023-03-17T00:36:28.133Z,4.15
2023-03-17T00:38:55.741Z,4.14
2023-03-17T00:41:22.885Z,4.14
2023-03-17T00:43:50.768Z,4.13
2023-03-17T00:46:35.840Z,4.12
2023-03-17T00:49:24.716Z,4.11
2023-03-17T00:51:52.423Z,4.13
2023-03-17T00:54:20.921Z,4.14
2023-03-17T00:56:49.754Z,4.16
2023-03-17T00:59:37.278Z,4.18
2023-03-17T01:02:04.334Z,4.19
2023-03-17T01:04:31.312Z,4.21
2023-03-17T01:06:58.599Z,4.24
2023-03-17T01:09:27.480Z,4.24
2023-03-17T01:11:55.783Z,4.25
2023-03-17T01:14:24.694Z,4.27
2023-03-17T01:16:53.119Z,4.27
2023-03-17T01:19:20.037Z,4.29
2023-03-17T01:21:48.078Z,4.31
2023-03-17T01:24:15.070Z,4.33
2023-03-17T01:26:41.972Z,4.34
2023-03-17T01:29:09.220Z,4.35
2023-03-17T01:31:36.387Z,4.35
2023-03-17T01:34:06.057Z,4.34
2023-03-17T01:36:33.013Z,4.34
2023-03-17T01:38:59.917Z,4.34
2023-03-17T01:41:26.818Z,4.33
2023-03-17T01:43:53.937Z,4.31
2023-03-17T01:46:35.462Z,4.31
2023-03-17T01:49:24.979Z,4.31
2023-03-17T01:52:12.567Z,4.33
2023-03-17T01:55:04.199Z,4.33
2023-03-17T01:57:53.505Z,4.32
2023-03-17T02:00:24.895Z,4.32
2023-03-17T02:02:55.553Z,4.32
2023-03-17T02:05:29.719Z,4.29
2023-03-17T02:07:57.164Z,4.29
2023-03-17T02:10:27.570Z,4.28
2023-03-17T02:12:59.188Z,4.27
2023-03-17T02:15:57.017Z,4.24
2023-03-17T02:18:24.048Z,4.24
2023-03-17T02:20:53.664Z,4.22
2023-03-17T02:23:23.295Z,4.20
2023-03-17T02:25:53.691Z,4.20
2023-03-17T02:28:28.299Z,4.20
2023-03-17T02:30:55.258Z,4.19
2023-03-17T02:33:22.184Z,4.19
2023-03-17T02:35:49.160Z,4.20
2023-03-17T02:38:17.383Z,4.21
2023-03-17T02:40:44.327Z,4.22
2023-03-17T02:43:11.284Z,4.24
2023-03-17T02:45:38.218Z,4.24
2023-03-17T02:48:06.186Z,4.25
2023-03-17T02:50:33.532Z,4.25
2023-03-17T02:53:00.722Z,4.25
2023-03-17T02:55:27.637Z,4.25
2023-03-17T02:57:54.516Z,4.24
2023-03-17T03:00:22.089Z,4.24
2023-03-17T03:02:49.047Z,4.25
2023-03-17T03:05:16.011Z,4.25
2023-03-17T03:07:43.392Z,4.25
2023-03-17T03:10:11.169Z,4.26
2023-03-17T03:12:38.293Z,4.26
2023-03-17T03:15:06.998Z,4.27
2023-03-17T03:17:33.941Z,4.28
2023-03-17T03:20:00.807Z,4.27
2023-03-17T03:22:27.724Z,4.26
2023-03-17T03:24:54.637Z,4.25
2023-03-17T03:27:21.687Z,4.25
2023-03-17T03:29:48.579Z,4.25
2023-03-17T03:32:15.466Z,4.25
2023-03-17T03:34:42.563Z,4.24
2023-03-17T03:37:09.520Z,4.24
2023-03-17T03:39:37.475Z,4.22
2023-03-17T03:42:04.617Z,4.21
2023-03-17T03:44:31.517Z,4.20
2023-03-17T03:46:58.460Z,4.20
2023-03-17T03:49:25.553Z,4.20
2023-03-17T03:51:52.481Z,4.19
2023-03-17T03:54:19.484Z,4.18
2023-03-17T03:56:46.381Z,4.16
2023-03-17T03:59:13.380Z,4.15
2023-03-17T04:01:40.397Z,4.14
2023-03-17T04:04:07.549Z,4.14
2023-03-17T04:06:34.486Z,4.13
2023-03-17T04:09:01.386Z,4.12
2023-03-17T04:11:28.346Z,4.12
2023-03-17T04:13:55.697Z,4.10
2023-03-17T04:16:22.766Z,4.08
2023-03-17T04:18:49.867Z,4.07
2023-03-17T04:21:18.999Z,4.06
2023-03-17T04:23:46.481Z,4.05
2023-03-17T04:26:13.672Z,4.02
2023-03-17T04:28:41.095Z,4.01
2023-03-17T04:31:12.377Z,3.99
2023-03-17T04:33:40.431Z,3.97
2023-03-17T04:36:08.621Z,3.96
2023-03-17T04:38:35.602Z,3.95
2023-03-17T04:41:02.537Z,3.94
2023-03-17T04:43:29.529Z,3.92
2023-03-17T04:45:56.924Z,3.90
2023-03-17T04:48:23.868Z,3.89
2023-03-17T04:50:51.366Z,3.88
2023-03-17T04:53:18.245Z,3.87
2023-03-17T04:55:45.869Z,3.87
2023-03-17T04:58:21.117Z,3.87
2023-03-17T05:00:54.988Z,3.86
2023-03-17T05:03:27.319Z,3.86
2023-03-17T05:05:55.546Z,3.86
2023-03-17T05:08:22.500Z,3.87
2023-03-17T05:10:49.604Z,3.88
2023-03-17T05:13:16.563Z,3.88
2023-03-17T05:15:52.068Z,3.90
2023-03-17T05:18:21.195Z,3.93
2023-03-17T05:20:48.237Z,3.96
2023-03-17T05:23:15.299Z,3.98
2023-03-17T05:25:42.314Z,4.01
2023-03-17T05:28:10.115Z,4.05
2023-03-17T05:30:37.099Z,4.09
2023-03-17T05:33:04.878Z,4.11
2023-03-17T05:35:31.899Z,4.12
2023-03-17T05:37:58.816Z,4.14
2023-03-17T05:40:26.574Z,4.15
2023-03-17T05:42:53.687Z,4.17
2023-03-17T05:45:20.639Z,4.19
2023-03-17T05:47:47.601Z,4.22
2023-03-17T05:50:14.888Z,4.27
2023-03-17T05:52:41.898Z,4.32
2023-03-17T05:55:09.492Z,4.35
2023-03-17T05:57:36.455Z,4.40
2023-03-17T06:00:05.356Z,4.41
2023-03-17T06:02:32.647Z,4.45
2023-03-17T06:04:59.665Z,4.49
2023-03-17T06:07:28.398Z,4.53
2023-03-17T06:09:58.365Z,4.55
2023-03-17T06:12:25.874Z,4.55
2023-03-17T06:14:52.776Z,4.56
2023-03-17T06:17:19.716Z,4.58
2023-03-17T06:19:49.324Z,4.59
2023-03-17T06:22:17.112Z,4.63
2023-03-17T06:24:44.065Z,4.65
2023-03-17T06:27:11.244Z,4.69
2023-03-17T06:29:38.155Z,4.72
2023-03-17T06:32:19.393Z,4.76
2023-03-17T06:34:47.427Z,4.80
2023-03-17T06:37:14.689Z,4.85
2023-03-17T06:39:42.241Z,4.90
2023-03-17T06:42:09.665Z,4.93
2023-03-17T06:44:37.145Z,4.96
2023-03-17T06:47:04.907Z,5.01
2023-03-17T06:49:32.153Z,5.06
2023-03-17T06:51:59.169Z,5.12
2023-03-17T06:54:26.622Z,5.21
2023-03-17T06:56:53.936Z,5.31
2023-03-17T06:59:22.724Z,5.43
2023-03-17T07:01:50.295Z,5.53
2023-03-17T07:04:17.425Z,5.63
2023-03-17T07:06:44.916Z,5.80
2023-03-17T07:09:11.877Z,5.95
2023-03-17T07:11:39.134Z,6.08
2023-03-17T07:14:06.734Z,6.16
2023-03-17T07:16:33.860Z,6.26
2023-03-17T07:19:01.861Z,6.32
2023-03-17T07:21:28.816Z,6.35
2023-03-17T07:23:56.191Z,6.41
2023-03-17T07:26:23.186Z,6.62
2023-03-17T07:28:50.164Z,7.12
2023-03-17T07:31:17.168Z,7.82
2023-03-17T07:33:44.266Z,8.59
2023-03-17T07:36:11.267Z,9.29
2023-03-17T07:38:38.338Z,9.82
2023-03-17T07:41:09.706Z,10.19
2023-03-17T07:43:37.686Z,10.18
2023-03-17T07:46:06.422Z,9.96
2023-03-17T07:48:34.461Z,9.72
2023-03-17T07:51:01.428Z,9.41
2023-03-17T07:53:28.441Z,9.14
2023-03-17T07:55:55.346Z,9.06
2023-03-17T07:58:22.609Z,9.42
2023-03-17T08:00:49.646Z,10.19
2023-03-17T08:03:16.932Z,10.69
2023-03-17T08:05:44.531Z,11.01
2023-03-17T08:08:12.601Z,11.58
2023-03-17T08:10:39.683Z,12.30
2023-03-17T08:13:06.697Z,13.12
2023-03-17T08:15:33.658Z,13.73
2023-03-17T08:18:01.269Z,13.91
2023-03-17T08:20:28.197Z,13.37
2023-03-17T08:22:56.081Z,12.85
2023-03-17T08:25:24.176Z,12.52
2023-03-17T08:27:51.557Z,11.97
2023-03-17T08:30:20.738Z,11.45
2023-03-17T08:32:48.153Z,11.11
2023-03-17T08:35:18.553Z,10.96
2023-03-17T08:37:47.539Z,10.82
2023-03-17T08:40:18.407Z,10.69
2023-03-17T08:42:47.502Z,10.62
2023-03-17T08:45:18.356Z,10.70
2023-03-17T08:47:46.717Z,10.69
2023-03-17T08:50:20.202Z,10.48
2023-03-17T08:52:48.711Z,10.35
2023-03-17T08:55:16.460Z,10.22
2023-03-17T08:57:45.057Z,10.06
2023-03-17T09:00:15.328Z,10.04
2023-03-17T09:02:43.908Z,10.07
2023-03-17T09:05:16.880Z,10.11
2023-03-17T09:07:44.521Z,10.17
2023-03-17T09:10:16.400Z,10.21
2023-03-17T09:12:43.505Z,10.26
2023-03-17T09:15:12.411Z,10.40
2023-03-17T09:17:39.560Z,10.50
2023-03-17T09:20:07.263Z,10.53
2023-03-17T09:22:34.194Z,10.60
2023-03-17T09:25:01.112Z,10.73
2023-03-17T09:27:28.011Z,10.96
2023-03-17T09:29:54.921Z,11.23
2023-03-17T09:32:22.605Z,11.56
2023-03-17T09:34:51.493Z,11.79
2023-03-17T09:37:18.564Z,12.13
2023-03-17T09:39:46.356Z,12.43
2023-03-17T09:42:36.413Z,12.50
2023-03-17T09:45:28.151Z,12.80
2023-03-17T09:48:35.328Z,13.43
2023-03-17T09:51:10.224Z,14.32
2023-03-17T09:54:02.507Z,14.87
2023-03-17T09:56:33.966Z,15.14
2023-03-17T09:59:28.601Z,15.10
2023-03-17T10:01:56.998Z,14.94
2023-03-17T10:04:24.296Z,14.75
2023-03-17T10:06:52.814Z,14.60
2023-03-17T10:09:47.123Z,14.52
2023-03-17T10:12:45.361Z,14.70
2023-03-17T10:15:36.151Z,15.11
2023-03-17T10:18:10.843Z,15.64
2023-03-17T10:21:09.656Z,16.12
2023-03-17T10:23:36.712Z,16.39
2023-03-17T10:26:42.593Z,16.36
2023-03-17T10:29:22.545Z,16.08
2023-03-17T10:31:52.884Z,15.84
2023-03-17T10:34:27.972Z,15.39
2023-03-17T10:37:09.680Z,15.07
2023-03-17T10:39:53.407Z,14.95
2023-03-17T10:42:25.384Z,14.95
2023-03-17T10:45:16.591Z,14.96
2023-03-17T10:47:48.999Z,14.73
2023-03-17T10:50:26.229Z,14.75
2023-03-17T10:53:00.785Z,14.81
2023-03-17T10:55:50.130Z,14.79
2023-03-17T10:58:39.794Z,14.67
2023-03-17T11:01:21.845Z,14.50
2023-03-17T11:03:49.647Z,14.40
2023-03-17T11:06:20.269Z,14.37
2023-03-17T11:08:53.745Z,14.38
2023-03-17T11:11:46.429Z,14.34
2023-03-17T11:14:20.250Z,14.40
2023-03-17T11:17:00.008Z,14.57
2023-03-17T11:19:31.760Z,14.70
2023-03-17T11:22:29.126Z,14.69
2023-03-17T11:25:19.771Z,14.60
2023-03-17T11:28:19.357Z,14.56
2023-03-17T11:30:54.930Z,14.44
2023-03-17T11:33:55.216Z,14.22
2023-03-17T11:36:28.096Z,14.01
2023-03-17T11:39:27.441Z,13.89
2023-03-17T11:42:15.457Z,13.86
2023-03-17T11:45:09.858Z,13.86
2023-03-17T11:48:10.424Z,13.80
2023-03-17T11:51:08.429Z,13.68
2023-03-17T11:54:09.934Z,13.60
2023-03-17T11:56:46.138Z,13.62
2023-03-17T11:59:30.574Z,13.58
2023-03-17T12:02:20.365Z,13.57
2023-03-17T12:04:57.419Z,13.60
2023-03-17T12:07:34.382Z,13.58
2023-03-17T12:10:16.528Z,13.57
2023-03-17T12:12:53.155Z,13.59
2023-03-17T12:15:29.347Z,13.59
2023-03-17T12:18:17.858Z,13.62
2023-03-17T12:21:17.535Z,13.73
2023-03-17T12:24:01.893Z,13.82
2023-03-17T12:26:55.901Z,13.91
2023-03-17T12:29:52.547Z,14.00
2023-03-17T12:32:50.476Z,14.07
2023-03-17T12:35:34.854Z,14.08
2023-03-17T12:38:29.525Z,14.14
2023-03-17T12:41:20.283Z,14.19
2023-03-17T12:44:08.006Z,14.25
2023-03-17T12:46:41.857Z,14.34
2023-03-17T12:49:56.002Z,14.34
2023-03-17T12:52:39.987Z,14.29
2023-03-17T12:55:15.207Z,14.29
2023-03-17T12:57:46.935Z,14.34
2023-03-17T13:00:29.693Z,14.37
2023-03-17T13:03:25.667Z,14.35
2023-03-17T13:06:02.159Z,14.37
2023-03-17T13:08:35.022Z,14.38
2023-03-17T13:11:29.629Z,14.38
2023-03-17T13:14:08.539Z,14.41
2023-03-17T13:16:41.088Z,14.47
2023-03-17T13:19:08.011Z,14.54
2023-03-17T13:21:36.440Z,14.63
2023-03-17T13:24:21.640Z,14.70
2023-03-17T13:26:57.386Z,14.75
2023-03-17T13:29:32.235Z,14.82
2023-03-17T13:32:17.295Z,14.89
2023-03-17T13:35:16.525Z,14.94
2023-03-17T13:38:14.208Z,14.98
2023-03-17T13:41:08.050Z,14.89
2023-03-17T13:44:12.327Z,14.78
2023-03-17T13:46:39.915Z,14.75
2023-03-17T13:49:18.460Z,14.75
2023-03-17T13:52:13.078Z,14.70
2023-03-17T13:54:51.277Z,14.71
2023-03-17T13:58:13.482Z,14.70
2023-03-17T14:00:49.384Z,14.67
2023-03-17T14:03:42.570Z,14.69
2023-03-17T14:06:12.842Z,14.72
2023-03-17T14:09:03.559Z,14.73
2023-03-17T14:11:38.789Z,14.77
2023-03-17T14:14:36.499Z,14.80
2023-03-17T14:17:39.732Z,14.75
2023-03-17T14:20:19.833Z,14.71
2023-03-17T14:22:54.405Z,14.71
2023-03-17T14:25:26.129Z,14.69
2023-03-17T14:27:56.967Z,14.68
2023-03-17T14:30:28.582Z,14.67
2023-03-17T14:33:06.776Z,14.71
2023-03-17T14:35:42.187Z,14.73
2023-03-17T14:38:32.066Z,14.70
2023-03-17T14:41:16.531Z,14.64
2023-03-17T14:43:44.306Z,14.60
2023-03-17T14:46:24.001Z,14.56
2023-03-17T14:49:16.058Z,14.50
2023-03-17T14:51:43.188Z,14.47
2023-03-17T14:54:16.230Z,14.42
2023-03-17T14:56:48.721Z,14.45
2023-03-17T14:59:37.494Z,14.44
2023-03-17T15:02:35.186Z,14.40
2023-03-17T15:05:26.473Z,14.37
2023-03-17T15:07:54.123Z,14.36
2023-03-17T15:10:25.978Z,14.34
2023-03-17T15:13:02.489Z,14.31
2023-03-17T15:15:34.685Z,14.29
2023-03-17T15:18:11.921Z,14.24
2023-03-17T15:20:38.865Z,14.21
2023-03-17T15:23:22.177Z,14.16
2023-03-17T15:25:55.687Z,14.11
2023-03-17T15:28:29.651Z,14.08
2023-03-17T15:31:11.481Z,14.05
2023-03-17T15:33:41.281Z,14.02
2023-03-17T15:36:29.254Z,13.99
2023-03-17T15:38:58.503Z,13.98
2023-03-17T15:41:25.600Z,13.96
2023-03-17T15:43:52.536Z,13.97
2023-03-17T15:46:27.654Z,13.95
2023-03-17T15:48:54.979Z,13.93
2023-03-17T15:51:22.141Z,13.89
2023-03-17T15:53:49.265Z,13.88
2023-03-17T15:56:21.211Z,13.85
2023-03-17T15:58:52.182Z,13.83
2023-03-17T16:01:19.990Z,13.80
2023-03-17T16:03:47.885Z,13.75
2023-03-17T16:06:22.079Z,13.74
2023-03-17T16:08:50.007Z,13.70
2023-03-17T16:11:28.184Z,13.68
2023-03-17T16:13:57.554Z,13.67
2023-03-17T16:16:38.192Z,13.63
2023-03-17T16:19:25.773Z,13.58
2023-03-17T16:21:55.259Z,13.54
2023-03-17T16:24:24.688Z,13.51
2023-03-17T16:26:52.515Z,13.46
2023-03-17T16:29:21.287Z,13.41
2023-03-17T16:31:50.857Z,13.37
2023-03-17T16:34:21.393Z,13.31
2023-03-17T16:36:48.674Z,13.26
2023-03-17T16:39:18.631Z,13.21
2023-03-17T16:41:50.380Z,13.16
2023-03-17T16:44:19.938Z,13.10
2023-03-17T16:46:47.403Z,13.04
2023-03-17T16:49:20.676Z,12.99
2023-03-17T16:51:49.440Z,12.94
2023-03-17T16:54:17.505Z,12.88
2023-03-17T16:56:45.152Z,12.83
2023-03-17T16:59:20.805Z,12.78
2023-03-17T17:01:47.909Z,12.74
2023-03-17T17:04:14.884Z,12.68
2023-03-17T17:06:41.766Z,12.63
2023-03-17T17:09:08.680Z,12.59
2023-03-17T17:11:35.583Z,12.56
2023-03-17T17:14:02.606Z,12.52
2023-03-17T17:16:35.959Z,12.49
2023-03-17T17:19:04.275Z,12.44
2023-03-17T17:21:32.974Z,12.40
2023-03-17T17:24:00.274Z,12.35
2023-03-17T17:26:27.223Z,12.31
2023-03-17T17:28:54.321Z,12.26
2023-03-17T17:31:21.286Z,12.22
2023-03-17T17:33:48.270Z,12.17
2023-03-17T17:36:17.405Z,12.12
2023-03-17T17:38:44.555Z,12.08
2023-03-17T17:41:13.336Z,12.06
2023-03-17T17:43:41.031Z,12.04
2023-03-17T17:46:26.107Z,12.00
2023-03-17T17:48:53.027Z,11.98
2023-03-17T17:51:19.896Z,11.96
2023-03-17T17:53:46.920Z,11.93
2023-03-17T17:56:16.779Z,11.89
2023-03-17T17:58:44.176Z,11.85
2023-03-17T18:01:13.880Z,11.82
2023-03-17T18:03:42.798Z,11.79
2023-03-17T18:06:10.015Z,11.75
2023-03-17T18:08:37.514Z,11.72
2023-03-17T18:11:05.369Z,11.68
2023-03-17T18:13:34.387Z,11.65
2023-03-17T18:16:02.000Z,11.61
2023-03-17T18:18:28.970Z,11.59
2023-03-17T18:20:56.350Z,11.58
2023-03-17T18:23:23.376Z,11.55
2023-03-17T18:25:50.341Z,11.54
2023-03-17T18:28:17.260Z,11.52
2023-03-17T18:30:45.179Z,11.51
2023-03-17T18:33:19.379Z,11.48
2023-03-17T18:35:50.124Z,11.46
2023-03-17T18:38:17.230Z,11.45
2023-03-17T18:40:44.700Z,11.43
2023-03-17T18:43:11.622Z,11.42
2023-03-17T18:45:38.670Z,11.41
2023-03-17T18:48:06.044Z,11.41
2023-03-17T18:50:33.384Z,11.41
2023-03-17T18:53:00.481Z,11.39
2023-03-17T18:55:27.425Z,11.37
2023-03-17T18:57:54.914Z,11.37
2023-03-17T19:00:24.572Z,11.38
2023-03-17T19:02:51.869Z,11.37
2023-03-17T19:05:18.880Z,11.36
2023-03-17T19:07:45.916Z,11.36
2023-03-17T19:10:14.171Z,11.49
2023-03-17T19:12:42.602Z,11.60
2023-03-17T19:15:10.698Z,11.66
2023-03-17T19:17:37.945Z,11.69
2023-03-17T19:20:06.501Z,11.75
2023-03-17T19:22:34.890Z,11.73
2023-03-17T19:25:04.265Z,11.65
2023-03-17T19:27:31.368Z,11.59
2023-03-17T19:29:58.332Z,11.54
2023-03-17T19:32:25.374Z,11.47
2023-03-17T19:34:52.605Z,11.41
2023-03-17T19:37:19.512Z,11.34
2023-03-17T19:39:46.999Z,11.28
2023-03-17T19:42:13.968Z,11.24
2023-03-17T19:44:41.178Z,11.21
2023-03-17T19:47:08.459Z,11.16
2023-03-17T19:49:37.477Z,11.14
2023-03-17T19:52:09.531Z,11.11
2023-03-17T19:54:45.855Z,11.09
2023-03-17T19:57:14.409Z,11.06
2023-03-17T19:59:41.430Z,11.04
2023-03-17T20:02:13.085Z,11.02
2023-03-17T20:04:40.281Z,11.00
2023-03-17T20:07:07.408Z,10.97
2023-03-17T20:09:35.460Z,10.96
2023-03-17T20:12:02.364Z,10.94
2023-03-17T20:14:29.264Z,10.92
2023-03-17T20:16:56.615Z,10.93
2023-03-17T20:19:23.903Z,10.90
2023-03-17T20:21:50.999Z,10.87
2023-03-17T20:24:17.939Z,10.87
2023-03-17T20:26:45.554Z,10.86
2023-03-17T20:29:14.295Z,10.84
2023-03-17T20:31:42.194Z,10.82
2023-03-17T20:34:10.073Z,10.80
2023-03-17T20:36:37.583Z,10.77
2023-03-17T20:39:06.275Z,10.76
2023-03-17T20:41:33.252Z,10.73
2023-03-17T20:44:00.129Z,10.71
2023-03-17T20:46:27.462Z,10.66
2023-03-17T20:48:58.902Z,10.63
2023-03-17T20:51:27.231Z,10.60
2023-03-17T20:53:55.143Z,10.55
2023-03-17T20:56:24.417Z,10.51
2023-03-17T20:58:53.193Z,10.46
2023-03-17T21:01:21.674Z,10.42
2023-03-17T21:03:50.134Z,10.39
2023-03-17T21:06:17.725Z,10.37
2023-03-17T21:08:46.197Z,10.32
2023-03-17T21:11:23.032Z,10.27
2023-03-17T21:13:50.600Z,10.22
2023-03-17T21:16:22.520Z,10.15
2023-03-17T21:18:49.671Z,10.08
2023-03-17T21:21:17.458Z,10.02
2023-03-17T21:23:45.335Z,9.97
2023-03-17T21:26:14.250Z,9.92
2023-03-17T21:28:41.832Z,9.86
2023-03-17T21:31:10.295Z,9.83
2023-03-17T21:33:37.410Z,9.79
2023-03-17T21:36:05.192Z,9.74
2023-03-17T21:38:32.252Z,9.68
2023-03-17T21:41:39.119Z,9.63
2023-03-17T21:44:07.892Z,9.55
2023-03-17T21:46:34.935Z,9.49
2023-03-17T21:49:02.275Z,9.45
2023-03-17T21:51:29.702Z,9.41
2023-03-17T21:53:57.761Z,9.36
2023-03-17T21:56:24.743Z,9.33
2023-03-17T21:58:51.948Z,9.31
2023-03-17T22:01:21.728Z,9.28
2023-03-17T22:03:51.016Z,9.26
2023-03-17T22:06:19.184Z,9.24
2023-03-17T22:08:48.012Z,9.23
2023-03-17T22:11:18.463Z,9.20
2023-03-17T22:13:46.113Z,9.21
2023-03-17T22:16:14.657Z,9.19
2023-03-17T22:18:41.885Z,9.18
2023-03-17T22:21:10.102Z,9.19
2023-03-17T22:23:41.654Z,9.18
2023-03-17T22:26:14.539Z,9.18
2023-03-17T22:28:43.077Z,9.15
2023-03-17T22:31:17.150Z,9.12
2023-03-17T22:33:44.793Z,9.10
2023-03-17T22:36:12.502Z,9.08
2023-03-17T22:38:39.504Z,9.06
2023-03-17T22:41:12.042Z,9.02
2023-03-17T22:43:40.098Z,9.00
2023-03-17T22:46:07.576Z,8.97
2023-03-17T22:48:36.111Z,8.95
2023-03-17T22:51:05.799Z,8.92
2023-03-17T22:53:33.503Z,8.92
2023-03-17T22:56:01.216Z,8.89
2023-03-17T22:58:29.010Z,8.90
2023-03-17T23:00:56.454Z,8.87
2023-03-17T23:03:25.509Z,8.87
2023-03-17T23:05:57.441Z,8.86
2023-03-17T23:08:26.081Z,8.84
2023-03-17T23:10:53.988Z,8.82
2023-03-17T23:13:21.401Z,8.83
2023-03-17T23:15:49.028Z,8.84
2023-03-17T23:18:16.616Z,8.87
2023-03-17T23:20:43.941Z,8.88
2023-03-17T23:23:12.285Z,8.91
2023-03-17T23:25:39.648Z,8.94
2023-03-17T23:28:07.908Z,8.96
2023-03-17T23:30:35.812Z,8.98
2023-03-17T23:33:04.842Z,9.01
2023-03-17T23:35:33.322Z,9.02
2023-03-17T23:38:00.353Z,9.02
2023-03-17T23:40:27.292Z,9.02
2023-03-17T23:42:55.160Z,9.03
2023-03-17T23:45:23.401Z,9.04
2023-03-17T23:47:52.455Z,9.04
2023-03-17T23:50:21.049Z,9.05
2023-03-17T23:52:48.167Z,9.04
2023-03-17T23:55:18.446Z,9.06
2023-03-17T23:57:45.707Z,9.08
